createdAt,value
2018-07-24T00:01:05.967Z,20.40
2018-07-24T00:03:34.176Z,20.40
2018-07-24T00:06:02.357Z,20.40
2018-07-24T00:08:30.568Z,20.40
2018-07-24T00:10:58.809Z,20.40
2018-07-24T00:13:26.915Z,20.30
2018-07-24T00:18:23.049Z,20.30
2018-07-24T00:20:51.208Z,20.30
2018-07-24T00:23:19.384Z,20.20
2018-07-24T00:25:47.573Z,20.20
2018-07-24T00:28:15.705Z,20.20
2018-07-24T00:30:43.884Z,20.20
2018-07-24T00:33:12.048Z,20.10
2018-07-24T00:35:40.248Z,20.00
2018-07-24T00:38:08.428Z,19.90
2018-07-24T00:40:36.554Z,19.80
2018-07-24T00:43:04.703Z,19.80
2018-07-24T00:45:33.116Z,19.80
2018-07-24T00:48:01.300Z,19.80
2018-07-24T00:50:29.489Z,19.80
2018-07-24T00:52:57.666Z,19.70
2018-07-24T00:55:25.831Z,19.60
2018-07-24T00:57:54.380Z,19.60
2018-07-24T01:00:22.537Z,19.50
2018-07-24T01:02:50.681Z,19.60
2018-07-24T01:05:18.812Z,19.50
2018-07-24T01:07:46.985Z,19.50
2018-07-24T01:10:15.159Z,19.40
2018-07-24T01:12:43.324Z,19.50
2018-07-24T01:15:11.570Z,19.40
2018-07-24T01:17:39.795Z,19.40
2018-07-24T01:20:07.973Z,19.40
2018-07-24T01:22:36.165Z,19.40
2018-07-24T01:25:04.360Z,19.40
2018-07-24T01:27:32.581Z,19.30
2018-07-24T01:30:00.781Z,19.30
2018-07-24T01:32:28.996Z,19.30
2018-07-24T01:34:57.194Z,19.20
2018-07-24T01:37:25.384Z,19.20
2018-07-24T01:39:53.585Z,19.20
2018-07-24T01:42:21.780Z,19.20
2018-07-24T01:44:50.057Z,19.10
2018-07-24T01:47:18.248Z,19.20
2018-07-24T01:49:46.506Z,19.10
2018-07-24T01:52:14.763Z,19.10
2018-07-24T01:54:42.992Z,19.10
2018-07-24T01:57:11.236Z,19.10
2018-07-24T01:59:39.421Z,19.10
2018-07-24T02:02:07.673Z,19.00
2018-07-24T02:04:35.964Z,19.00
2018-07-24T02:07:04.333Z,18.90
2018-07-24T02:09:32.597Z,18.90
2018-07-24T02:12:00.808Z,19.00
2018-07-24T02:14:28.972Z,19.00
2018-07-24T02:16:57.163Z,19.00
2018-07-24T02:19:25.304Z,19.00
2018-07-24T02:21:53.518Z,19.00
2018-07-24T02:24:21.723Z,19.00
2018-07-24T02:26:49.919Z,19.00
2018-07-24T02:29:18.129Z,18.90
2018-07-24T02:31:46.347Z,18.90
2018-07-24T02:34:14.574Z,18.90
2018-07-24T02:36:42.786Z,18.80
2018-07-24T02:39:13.446Z,18.80
2018-07-24T02:41:41.792Z,18.80
2018-07-24T02:44:10.143Z,18.70
2018-07-24T02:46:38.374Z,18.70
2018-07-24T02:51:34.560Z,18.70
2018-07-24T02:54:02.759Z,18.60
2018-07-24T02:56:30.960Z,18.70
2018-07-24T02:58:59.239Z,18.60
2018-07-24T03:01:27.604Z,18.60
2018-07-24T03:03:55.908Z,18.60
2018-07-24T03:06:24.220Z,18.60
2018-07-24T03:08:52.508Z,18.60
2018-07-24T03:11:20.701Z,18.60
2018-07-24T03:13:48.891Z,18.60
2018-07-24T03:16:17.210Z,18.60
2018-07-24T03:18:45.304Z,18.60
2018-07-24T03:21:13.486Z,18.60
2018-07-24T03:23:41.752Z,18.60
2018-07-24T03:26:09.916Z,18.60
2018-07-24T03:28:38.063Z,18.60
2018-07-24T03:31:06.270Z,18.60
2018-07-24T03:33:34.461Z,18.50
2018-07-24T03:36:02.641Z,18.50
2018-07-24T03:38:30.840Z,18.50
2018-07-24T03:40:59.092Z,18.50
2018-07-24T03:43:27.239Z,18.50
2018-07-24T03:45:55.376Z,18.50
2018-07-24T03:48:23.585Z,18.50
2018-07-24T03:50:51.781Z,18.50
2018-07-24T03:53:19.978Z,18.50
2018-07-24T03:55:48.306Z,18.40
2018-07-24T03:58:16.592Z,18.40
2018-07-24T04:00:44.813Z,18.50
2018-07-24T04:03:13.006Z,18.50
2018-07-24T04:05:41.221Z,18.60
2018-07-24T04:08:09.442Z,18.60
2018-07-24T04:10:37.619Z,18.70
2018-07-24T04:13:05.852Z,18.70
2018-07-24T04:15:34.024Z,18.70
2018-07-24T04:18:02.190Z,18.70
2018-07-24T04:20:30.395Z,18.70
2018-07-24T04:22:58.553Z,18.70
2018-07-24T04:25:26.749Z,18.80
2018-07-24T04:27:54.993Z,18.90
2018-07-24T04:30:23.174Z,18.90
2018-07-24T04:32:51.372Z,19.00
2018-07-24T04:35:19.510Z,19.00
2018-07-24T04:37:47.726Z,19.00
2018-07-24T04:40:15.927Z,19.10
2018-07-24T04:42:44.168Z,19.10
2018-07-24T04:45:12.341Z,19.10
2018-07-24T04:47:40.642Z,19.20
2018-07-24T04:50:08.820Z,19.30
2018-07-24T04:52:37.116Z,19.40
2018-07-24T04:55:05.553Z,19.50
2018-07-24T04:57:33.884Z,19.50
2018-07-24T05:00:02.280Z,19.60
2018-07-24T05:02:30.546Z,19.60
2018-07-24T05:04:58.725Z,19.70
2018-07-24T05:07:26.941Z,19.80
2018-07-24T05:09:55.176Z,19.90
2018-07-24T05:12:23.536Z,20.00
2018-07-24T05:14:51.948Z,20.10
2018-07-24T05:17:20.175Z,20.20
2018-07-24T05:19:48.684Z,20.20
2018-07-24T05:22:16.964Z,20.30
2018-07-24T05:24:45.441Z,20.40
2018-07-24T05:27:13.657Z,20.40
2018-07-24T05:29:41.828Z,20.60
2018-07-24T05:32:10.239Z,20.70
2018-07-24T05:34:38.457Z,20.80
2018-07-24T05:37:06.644Z,20.90
2018-07-24T05:39:34.825Z,20.90
2018-07-24T05:42:03.059Z,21.00
2018-07-24T05:44:31.273Z,21.00
2018-07-24T05:49:27.370Z,21.20
2018-07-24T05:51:55.584Z,21.30
2018-07-24T05:54:23.797Z,21.30
2018-07-24T05:56:51.928Z,21.40
2018-07-24T05:59:20.240Z,21.50
2018-07-24T06:01:48.572Z,21.50
2018-07-24T06:04:16.688Z,21.70
2018-07-24T06:06:44.833Z,21.80
2018-07-24T06:09:13.004Z,21.90
2018-07-24T06:11:41.238Z,21.90
2018-07-24T06:14:09.522Z,22.00
2018-07-24T06:16:37.750Z,22.10
2018-07-24T06:19:05.865Z,22.20
2018-07-24T06:21:34.021Z,22.30
2018-07-24T06:24:02.252Z,22.40
2018-07-24T06:26:30.444Z,22.50
2018-07-24T06:28:58.650Z,22.60
2018-07-24T06:31:27.873Z,22.70
2018-07-24T06:33:56.000Z,22.80
2018-07-24T06:36:24.137Z,22.90
2018-07-24T06:38:52.323Z,22.90
2018-07-24T06:41:20.484Z,23.10
2018-07-24T06:43:48.690Z,23.10
2018-07-24T06:46:16.841Z,23.20
2018-07-24T06:48:45.016Z,23.30
2018-07-24T06:53:41.155Z,23.60
2018-07-24T06:56:09.356Z,23.60
2018-07-24T06:58:37.560Z,23.70
2018-07-24T07:01:05.817Z,23.80
2018-07-24T07:03:34.052Z,23.90
2018-07-24T07:06:02.224Z,24.00
2018-07-24T07:08:30.769Z,24.00
2018-07-24T07:10:59.012Z,24.10
2018-07-24T07:13:27.247Z,24.10
2018-07-24T07:15:55.392Z,24.20
2018-07-24T07:18:23.571Z,24.30
2018-07-24T07:20:51.812Z,24.30
2018-07-24T07:23:20.028Z,24.40
2018-07-24T07:25:48.229Z,24.50
2018-07-24T07:28:16.408Z,24.60
2018-07-24T07:30:44.591Z,24.60
2018-07-24T07:33:12.884Z,24.70
2018-07-24T07:35:41.075Z,24.80
2018-07-24T07:38:09.280Z,24.90
2018-07-24T07:40:37.469Z,25.00
2018-07-24T07:43:05.752Z,25.00
2018-07-24T07:45:33.908Z,25.10
2018-07-24T07:48:02.129Z,25.20
2018-07-24T07:50:30.391Z,25.30
2018-07-24T07:52:58.589Z,25.30
2018-07-24T07:55:26.788Z,25.40
2018-07-24T07:57:54.948Z,25.40
2018-07-24T08:00:23.181Z,25.50
2018-07-24T08:02:51.622Z,25.60
2018-07-24T08:05:19.832Z,25.70
2018-07-24T08:07:47.997Z,25.80
2018-07-24T08:10:16.193Z,25.80
2018-07-24T08:12:44.414Z,25.90
2018-07-24T08:15:12.624Z,26.00
2018-07-24T08:17:40.797Z,26.00
2018-07-24T08:20:09.080Z,26.00
2018-07-24T08:25:05.259Z,26.20
2018-07-24T08:27:39.822Z,26.20
2018-07-24T08:30:08.087Z,26.20
2018-07-24T08:32:36.239Z,26.20
2018-07-24T08:35:04.441Z,26.30
2018-07-24T08:37:32.684Z,26.30
2018-07-24T08:40:00.892Z,26.40
2018-07-24T08:42:29.145Z,26.40
2018-07-24T08:44:57.301Z,26.40
2018-07-24T08:47:25.536Z,26.50
2018-07-24T08:49:53.694Z,26.60
2018-07-24T08:52:21.944Z,26.70
2018-07-24T08:54:50.311Z,26.80
2018-07-24T08:57:18.312Z,26.90
2018-07-24T08:59:46.470Z,26.90
2018-07-24T09:02:14.656Z,26.90
2018-07-24T09:04:42.845Z,26.90
2018-07-24T09:07:11.011Z,27.00
2018-07-24T09:09:39.219Z,27.10
2018-07-24T09:12:07.492Z,27.10
2018-07-24T09:14:35.717Z,27.20
2018-07-24T09:17:03.896Z,27.20
2018-07-24T09:19:32.093Z,27.20
2018-07-24T09:22:00.321Z,27.20
2018-07-24T09:24:28.457Z,27.30
2018-07-24T09:26:56.613Z,27.30
2018-07-24T09:29:24.809Z,27.40
2018-07-24T09:31:53.065Z,27.40
2018-07-24T09:34:21.324Z,27.50
2018-07-24T09:36:49.520Z,27.50
2018-07-24T09:39:17.701Z,27.50
2018-07-24T09:41:45.885Z,27.60
2018-07-24T09:44:14.063Z,27.80
2018-07-24T09:46:42.338Z,27.80
2018-07-24T09:49:10.648Z,27.90
2018-07-24T09:51:38.788Z,27.90
2018-07-24T09:54:07.025Z,27.90
2018-07-24T09:56:35.245Z,27.90
2018-07-24T09:59:03.634Z,28.00
2018-07-24T10:01:33.654Z,28.00
2018-07-24T10:04:02.606Z,28.00
2018-07-24T10:06:31.478Z,28.10
2018-07-24T10:08:59.607Z,28.00
2018-07-24T10:11:28.295Z,28.20
2018-07-24T10:13:56.562Z,28.20
2018-07-24T10:16:24.841Z,28.30
2018-07-24T10:18:53.103Z,28.40
2018-07-24T10:21:21.712Z,28.40
2018-07-24T10:23:49.860Z,28.50
2018-07-24T10:26:18.056Z,28.50
2018-07-24T10:28:46.251Z,28.50
2018-07-24T10:31:14.459Z,28.50
2018-07-24T10:33:43.430Z,28.60
2018-07-24T10:36:11.670Z,28.60
2018-07-24T10:38:39.879Z,28.70
2018-07-24T10:41:08.103Z,28.80
2018-07-24T10:43:36.247Z,28.90
2018-07-24T10:46:04.421Z,29.00
2018-07-24T10:48:32.648Z,29.00
2018-07-24T10:51:00.795Z,29.10
2018-07-24T10:53:29.243Z,29.00
2018-07-24T10:55:57.532Z,29.00
2018-07-24T10:58:25.729Z,29.00
2018-07-24T11:00:53.921Z,29.10
2018-07-24T11:03:22.206Z,29.00
2018-07-24T11:05:50.417Z,29.20
2018-07-24T11:08:18.619Z,29.30
2018-07-24T11:10:47.098Z,29.10
2018-07-24T11:13:15.303Z,29.20
2018-07-24T11:15:43.509Z,29.30
2018-07-24T11:18:11.818Z,29.40
2018-07-24T11:20:40.025Z,29.50
2018-07-24T11:23:08.290Z,29.50
2018-07-24T11:25:36.441Z,29.50
2018-07-24T11:28:04.605Z,29.60
2018-07-24T11:30:32.777Z,29.70
2018-07-24T11:33:01.558Z,29.70
2018-07-24T11:35:29.773Z,29.70
2018-07-24T11:37:58.030Z,29.80
2018-07-24T11:40:26.173Z,29.80
2018-07-24T11:42:54.346Z,29.90
2018-07-24T11:45:22.603Z,29.90
2018-07-24T11:47:50.857Z,30.00
2018-07-24T11:50:18.987Z,30.00
2018-07-24T11:52:47.207Z,30.00
2018-07-24T11:55:15.396Z,30.10
2018-07-24T11:57:43.545Z,30.20
2018-07-24T12:00:11.716Z,30.20
2018-07-24T12:02:39.876Z,30.30
2018-07-24T12:05:08.200Z,30.40
2018-07-24T12:07:36.309Z,30.30
2018-07-24T12:10:05.149Z,30.40
2018-07-24T12:12:33.280Z,30.40
2018-07-24T12:15:01.559Z,30.40
2018-07-24T12:17:29.716Z,30.50
2018-07-24T12:19:57.856Z,30.50
2018-07-24T12:22:26.037Z,30.40
2018-07-24T12:24:54.259Z,30.50
2018-07-24T12:27:22.433Z,30.50
2018-07-24T12:29:50.581Z,30.50
2018-07-24T12:32:18.744Z,30.50
2018-07-24T12:34:46.920Z,30.30
2018-07-24T12:37:15.130Z,30.30
2018-07-24T12:39:43.305Z,30.30
2018-07-24T12:42:11.590Z,30.40
2018-07-24T12:44:39.973Z,30.50
2018-07-24T12:47:09.202Z,30.60
2018-07-24T12:49:37.353Z,30.60
2018-07-24T12:52:05.561Z,30.70
2018-07-24T12:54:34.447Z,30.70
2018-07-24T13:00:41.380Z,30.70
2018-07-24T13:03:24.861Z,30.80
2018-07-24T13:05:53.099Z,30.80
2018-07-24T13:08:24.527Z,30.90
2018-07-24T13:10:58.325Z,30.90
2018-07-24T13:13:38.961Z,30.90
2018-07-24T13:16:07.600Z,30.90
2018-07-24T13:18:35.760Z,30.90
2018-07-24T13:21:03.935Z,30.90
2018-07-24T13:23:32.181Z,30.90
2018-07-24T13:26:00.333Z,30.90
2018-07-24T13:28:28.468Z,31.00
2018-07-24T13:30:56.645Z,31.10
2018-07-24T13:33:24.821Z,31.30
2018-07-24T13:38:21.341Z,31.40
2018-07-24T13:40:50.560Z,31.40
2018-07-24T13:43:18.812Z,31.40
2018-07-24T13:45:47.052Z,31.30
2018-07-24T13:48:15.288Z,31.50
2018-07-24T13:50:44.383Z,31.50
2018-07-24T13:53:12.606Z,31.50
2018-07-24T13:55:40.823Z,31.40
2018-07-24T13:58:08.975Z,31.50
2018-07-24T14:00:37.188Z,31.50
2018-07-24T14:03:05.642Z,31.40
2018-07-24T14:05:33.940Z,31.40
2018-07-24T14:08:02.090Z,31.50
2018-07-24T14:10:30.509Z,31.50
2018-07-24T14:12:58.668Z,31.60
2018-07-24T14:15:26.827Z,31.50
2018-07-24T14:17:55.063Z,31.50
2018-07-24T14:20:23.321Z,31.60
2018-07-24T14:22:51.494Z,31.60
2018-07-24T14:25:19.772Z,31.70
2018-07-24T14:27:47.987Z,31.80
2018-07-24T14:30:16.233Z,31.90
2018-07-24T14:32:44.468Z,32.00
2018-07-24T14:35:12.721Z,32.00
2018-07-24T14:37:40.973Z,31.90
2018-07-24T14:40:09.176Z,31.70
2018-07-24T14:42:37.348Z,31.70
2018-07-24T14:45:05.833Z,31.80
2018-07-24T14:47:34.089Z,31.70
2018-07-24T14:50:02.442Z,31.70
2018-07-24T14:52:30.658Z,31.70
2018-07-24T14:54:59.024Z,31.70
2018-07-24T14:57:27.363Z,31.80
2018-07-24T14:59:55.607Z,31.80
2018-07-24T15:02:23.868Z,31.80
2018-07-24T15:04:52.182Z,31.90
2018-07-24T15:07:20.441Z,32.00
2018-07-24T15:09:48.758Z,32.00
2018-07-24T15:12:17.002Z,31.90
2018-07-24T15:14:45.184Z,31.80
2018-07-24T15:17:13.533Z,31.80
2018-07-24T15:19:41.769Z,31.80
2018-07-24T15:22:09.940Z,31.80
2018-07-24T15:24:38.128Z,31.80
2018-07-24T15:27:06.324Z,31.80
2018-07-24T15:32:02.641Z,31.70
2018-07-24T15:34:31.262Z,31.60
2018-07-24T15:36:59.494Z,31.50
2018-07-24T15:39:27.748Z,31.50
2018-07-24T15:41:55.977Z,31.50
2018-07-24T15:44:24.300Z,31.50
2018-07-24T15:46:52.585Z,31.60
2018-07-24T15:49:20.816Z,31.60
2018-07-24T15:51:49.035Z,31.60
2018-07-24T15:54:17.512Z,31.60
2018-07-24T15:56:46.033Z,31.60
2018-07-24T15:59:14.398Z,31.60
2018-07-24T16:01:42.777Z,31.60
2018-07-24T16:04:11.143Z,31.60
2018-07-24T16:09:29.733Z,31.60
2018-07-24T16:11:57.989Z,31.50
2018-07-24T16:14:26.537Z,31.50
2018-07-24T16:16:55.021Z,31.50
2018-07-24T16:19:23.448Z,31.50
2018-07-24T16:21:51.912Z,31.60
2018-07-24T16:24:20.205Z,31.60
2018-07-24T16:26:48.501Z,31.70
2018-07-24T16:29:16.995Z,31.70
2018-07-24T16:31:45.363Z,31.70
2018-07-24T16:34:13.705Z,31.70
2018-07-24T16:36:42.145Z,31.80
2018-07-24T16:39:11.932Z,31.80
2018-07-24T16:41:40.527Z,31.90
2018-07-24T16:44:08.944Z,31.90
2018-07-24T16:46:38.252Z,31.90
2018-07-24T16:49:06.570Z,31.90
2018-07-24T16:51:35.523Z,31.90
2018-07-24T16:54:03.834Z,31.90
2018-07-24T16:59:23.108Z,31.80
2018-07-24T17:01:59.797Z,31.70
2018-07-24T17:04:32.863Z,31.70
2018-07-24T17:07:01.153Z,31.70
2018-07-24T17:09:29.862Z,31.60
2018-07-24T17:11:58.213Z,31.60
2018-07-24T17:14:26.492Z,31.50
2018-07-24T17:16:55.030Z,31.50
2018-07-24T17:19:23.472Z,31.50
2018-07-24T17:21:51.912Z,31.40
2018-07-24T17:24:20.483Z,31.30
2018-07-24T17:26:48.812Z,31.30
2018-07-24T17:29:17.160Z,31.40
2018-07-24T17:31:45.550Z,31.30
2018-07-24T17:34:13.932Z,31.20
2018-07-24T17:39:11.014Z,31.20
2018-07-24T17:41:39.290Z,31.10
2018-07-24T17:44:08.728Z,31.10
2018-07-24T17:46:37.539Z,31.10
2018-07-24T17:49:06.283Z,31.00
2018-07-24T17:51:34.679Z,31.00
2018-07-24T17:54:03.119Z,31.10
2018-07-24T17:56:31.440Z,31.00
2018-07-24T17:59:00.104Z,31.00
2018-07-24T18:01:34.896Z,30.90
2018-07-24T18:04:03.264Z,30.80
2018-07-24T18:06:31.860Z,30.80
2018-07-24T18:09:00.201Z,30.70
2018-07-24T18:11:28.458Z,30.70
2018-07-24T18:13:57.004Z,30.60
2018-07-24T18:16:25.269Z,30.50
2018-07-24T18:18:53.652Z,30.50
2018-07-24T18:21:21.985Z,30.40
2018-07-24T18:23:50.430Z,30.30
2018-07-24T18:26:19.816Z,30.30
2018-07-24T18:28:48.075Z,30.20
2018-07-24T18:31:16.466Z,30.00
2018-07-24T18:33:45.001Z,30.00
2018-07-24T18:36:13.250Z,29.90
2018-07-24T18:38:42.146Z,29.80
2018-07-24T18:41:10.884Z,29.70
2018-07-24T18:43:39.483Z,29.50
2018-07-24T18:46:07.768Z,29.40
2018-07-24T18:48:36.104Z,29.30
2018-07-24T18:51:04.443Z,29.20
2018-07-24T18:53:32.931Z,29.10
2018-07-24T18:56:01.164Z,29.00
2018-07-24T18:58:29.556Z,28.90
2018-07-24T19:01:00.091Z,28.80
2018-07-24T19:03:28.814Z,28.70
2018-07-24T19:06:02.041Z,28.70
2018-07-24T19:08:30.349Z,28.70
2018-07-24T19:10:58.748Z,28.60
2018-07-24T19:13:27.227Z,28.50
2018-07-24T19:15:55.461Z,28.30
2018-07-24T19:20:51.828Z,28.20
2018-07-24T19:23:20.164Z,28.10
2018-07-24T19:25:49.564Z,28.00
2018-07-24T19:28:17.889Z,27.90
2018-07-24T19:30:46.250Z,27.80
2018-07-24T19:33:14.528Z,27.80
2018-07-24T19:35:43.008Z,27.60
2018-07-24T19:38:11.434Z,27.60
2018-07-24T19:40:40.123Z,27.50
2018-07-24T19:43:08.412Z,27.40
2018-07-24T19:45:36.828Z,27.30
2018-07-24T19:48:05.152Z,27.20
2018-07-24T19:50:33.938Z,27.10
2018-07-24T19:53:02.293Z,27.10
2018-07-24T19:55:31.111Z,27.00
2018-07-24T19:57:59.399Z,26.90
2018-07-24T20:00:27.632Z,26.90
2018-07-24T20:02:55.926Z,26.80
2018-07-24T20:05:24.670Z,26.80
2018-07-24T20:07:53.253Z,26.70
2018-07-24T20:10:21.725Z,26.60
2018-07-24T20:12:50.199Z,26.60
2018-07-24T20:15:20.233Z,26.60
2018-07-24T20:17:48.769Z,26.50
2018-07-24T20:20:17.468Z,26.40
2018-07-24T20:22:46.234Z,26.30
2018-07-24T20:25:14.563Z,26.30
2018-07-24T20:27:42.836Z,26.20
2018-07-24T20:30:11.156Z,26.20
2018-07-24T20:32:39.409Z,26.10
2018-07-24T20:35:08.095Z,26.10
2018-07-24T20:37:36.653Z,26.00
2018-07-24T20:40:05.595Z,25.90
2018-07-24T20:42:34.071Z,25.90
2018-07-24T20:45:02.281Z,25.80
2018-07-24T20:47:30.572Z,25.80
2018-07-24T20:49:58.802Z,25.80
2018-07-24T20:52:27.164Z,25.70
2018-07-24T20:54:55.388Z,25.60
2018-07-24T20:57:23.826Z,25.60
2018-07-24T20:59:52.069Z,25.60
2018-07-24T21:02:20.343Z,25.50
2018-07-24T21:04:48.628Z,25.50
2018-07-24T21:07:16.901Z,25.50
2018-07-24T21:09:45.197Z,25.40
2018-07-24T21:12:13.464Z,25.40
2018-07-24T21:14:41.636Z,25.40
2018-07-24T21:17:10.050Z,25.30
2018-07-24T21:19:38.236Z,25.30
2018-07-24T21:22:06.544Z,25.30
2018-07-24T21:24:34.832Z,25.30
2018-07-24T21:27:03.126Z,25.20
2018-07-24T21:29:31.460Z,25.10
2018-07-24T21:31:59.632Z,25.10
2018-07-24T21:34:27.881Z,25.10
2018-07-24T21:36:56.644Z,25.00
2018-07-24T21:39:24.913Z,25.00
2018-07-24T21:41:53.149Z,25.00
2018-07-24T21:44:21.547Z,24.90
2018-07-24T21:46:49.733Z,24.90
2018-07-24T21:49:17.951Z,24.80
2018-07-24T21:51:46.282Z,24.80
2018-07-24T21:54:14.465Z,24.80
2018-07-24T21:56:42.999Z,24.80
2018-07-24T21:59:11.296Z,24.80
2018-07-24T22:01:39.551Z,24.70
2018-07-24T22:04:08.068Z,24.70
2018-07-24T22:06:36.338Z,24.70
2018-07-24T22:09:07.547Z,24.60
2018-07-24T22:11:36.775Z,24.60
2018-07-24T22:14:05.043Z,24.60
2018-07-24T22:16:33.301Z,24.60
2018-07-24T22:19:01.513Z,24.50
2018-07-24T22:21:30.377Z,24.50
2018-07-24T22:23:58.700Z,24.40
2018-07-24T22:26:26.968Z,24.40
2018-07-24T22:28:55.224Z,24.30
2018-07-24T22:31:23.480Z,24.30
2018-07-24T22:33:51.707Z,24.30
2018-07-24T22:36:20.127Z,24.30
2018-07-24T22:38:48.388Z,24.20
2018-07-24T22:41:16.725Z,24.20
2018-07-24T22:43:44.924Z,24.10
2018-07-24T22:46:13.149Z,24.10
2018-07-24T22:48:41.364Z,24.10
2018-07-24T22:51:09.621Z,24.10
2018-07-24T22:53:37.875Z,24.10
2018-07-24T22:56:06.051Z,24.00
2018-07-24T22:58:34.233Z,24.00
2018-07-24T23:01:02.476Z,24.00
2018-07-24T23:03:30.670Z,23.90
2018-07-24T23:05:58.863Z,23.90
2018-07-24T23:08:27.069Z,23.80
2018-07-24T23:10:55.224Z,23.80
2018-07-24T23:13:23.393Z,23.80
2018-07-24T23:15:51.668Z,23.70
2018-07-24T23:18:19.949Z,23.70
2018-07-24T23:20:48.183Z,23.60
2018-07-24T23:23:16.348Z,23.60
2018-07-24T23:25:44.546Z,23.60
2018-07-24T23:28:12.798Z,23.60
2018-07-24T23:30:41.027Z,23.60
2018-07-24T23:33:09.265Z,23.60
2018-07-24T23:35:37.441Z,23.60
2018-07-24T23:38:06.048Z,23.50
2018-07-24T23:40:34.272Z,23.50
2018-07-24T23:43:02.459Z,23.50
2018-07-24T23:45:30.751Z,23.50
2018-07-24T23:47:58.944Z,23.50
2018-07-24T23:50:27.233Z,23.50
2018-07-24T23:52:55.415Z,23.50
2018-07-24T23:55:23.567Z,23.40
2018-07-24T23:57:51.852Z,23.40
